Stations météo

Publicité
Aix en Provence, France (7654): Température de l'air & dewpoint: 20.06.2019 20:00:00 - 26.06.2019 20:00:00 (CEST)Aix en Provence, France (7654): Vitesse du vent & gusts: 20.06.2019 20:00:00 - 26.06.2019 20:00:00 (CEST)Aix en Provence, France (7654): Direction du vent: 20.06.2019 20:00:00 - 26.06.2019 20:00:00 (CEST)Aix en Provence, France (7654): Quantités de précipitations: 20.06.2019 20:00:00 - 26.06.2019 20:00:00 (CEST)
Date & Time tt [°C] td [°C] ff [km/h] ff [knt] fx [km/h] fx [knt] dd rr [mm]
26.06.2019 20:00:00 33,4 15,4 8 4 18 10 WSW -
26.06.2019 19:00:00 35,1 16,4 9 5 26 14 SW 0,0
26.06.2019 18:00:00 36,2 16,4 11 6 26 14 WSW 0,0
26.06.2019 17:00:00 37,4 17,4 9 5 24 13 W 0,0
26.06.2019 16:00:00 37,9 16,8 13 7 29 16 WNW 0,0
26.06.2019 15:00:00 37,3 17,3 11 6 22 12 WSW 0,0
26.06.2019 14:00:00 37,1 17,7 13 7 22 12 WSW -
26.06.2019 13:00:00 36,5 16,6 5 3 24 13 SE 0,0
26.06.2019 12:00:00 35,1 16,9 9 5 24 13 E 0,0
26.06.2019 11:00:00 33,8 17,1 13 7 24 13 E 0,0
26.06.2019 10:00:00 32,3 17,0 9 5 16 9 SE 0,0
26.06.2019 09:00:00 30,3 18,4 2 1 5 3 S 0,0
26.06.2019 08:00:00 25,4 17,8 0 0 2 1 N -
26.06.2019 07:00:00 21,3 16,9 0 0 0 0 N 0,0
26.06.2019 06:00:00 20,2 16,4 0 0 4 2 N 0,0
26.06.2019 05:00:00 20,2 16,2 0 0 4 2 N 0,0
26.06.2019 04:00:00 20,8 15,8 0 0 0 0 N 0,0
26.06.2019 03:00:00 21,3 15,8 0 0 4 2 N 0,0
26.06.2019 02:00:00 21,9 15,7 0 0 4 2 N -
26.06.2019 01:00:00 23,0 16,3 0 0 2 1 N 0,0
26.06.2019 00:00:00 24,1 16,1 0 0 4 2 N 0,0
25.06.2019 23:00:00 25,5 15,2 2 1 9 5 NNW 0,0
25.06.2019 22:00:00 27,0 15,4 4 2 9 5 NW 0,0
25.06.2019 21:00:00 29,5 15,2 8 4 18 10 WNW 0,0
25.06.2019 20:00:00 32,4 15,8 5 3 18 10 WNW -
25.06.2019 19:00:00 34,8 15,2 11 6 24 13 SSW 0,0
25.06.2019 18:00:00 36,1 14,7 11 6 26 14 S 0,0
25.06.2019 17:00:00 36,9 14,2 11 6 28 15 SE 0,0
25.06.2019 16:00:00 36,8 14,7 9 5 29 16 SE 0,0
25.06.2019 15:00:00 36,3 14,9 15 8 29 16 SE 0,0
25.06.2019 14:00:00 36,1 15,3 13 7 35 19 E -
25.06.2019 13:00:00 35,0 14,8 13 7 28 15 E 0,0
25.06.2019 12:00:00 33,8 14,8 15 8 37 20 E 0,0
25.06.2019 11:00:00 32,7 15,2 18 10 37 20 E 0,0
25.06.2019 10:00:00 31,1 15,5 13 7 31 17 ESE 0,0
25.06.2019 09:00:00 29,4 15,1 5 3 15 8 SE 0,0
25.06.2019 08:00:00 25,5 13,4 4 2 9 5 E -
25.06.2019 07:00:00 20,3 14,0 4 2 8 4 E 0,0
25.06.2019 06:00:00 18,2 13,9 0 0 4 2 N 0,0
25.06.2019 05:00:00 18,4 13,7 0 0 4 2 N 0,0
25.06.2019 04:00:00 19,0 13,8 0 0 4 2 N 0,0
25.06.2019 03:00:00 19,6 13,5 2 1 5 3 N 0,0
25.06.2019 02:00:00 20,2 13,9 0 0 5 3 N -
25.06.2019 01:00:00 20,8 13,7 0 0 5 3 N 0,0
25.06.2019 00:00:00 21,5 13,4 0 0 4 2 N 0,0
24.06.2019 23:00:00 23,1 13,6 0 0 4 2 N 0,0
24.06.2019 22:00:00 24,7 13,6 0 0 11 6 N 0,0
24.06.2019 21:00:00 27,0 13,0 4 2 15 8 WNW 0,0
24.06.2019 20:00:00 29,8 12,7 8 4 18 10 WNW -
24.06.2019 19:00:00 31,7 13,9 8 4 18 10 WSW 0,0
24.06.2019 18:00:00 32,5 13,7 9 5 26 14 W 0,0
24.06.2019 17:00:00 33,3 13,4 8 4 26 14 SSW 0,0
24.06.2019 16:00:00 34,2 14,7 11 6 26 14 SW 0,0
24.06.2019 15:00:00 33,6 16,0 9 5 21 11 W 0,0
24.06.2019 14:00:00 33,5 14,1 9 5 21 11 E -
24.06.2019 13:00:00 32,8 12,9 8 4 24 13 ENE 0,0
24.06.2019 12:00:00 31,1 12,9 11 6 24 13 ESE 0,0
24.06.2019 11:00:00 29,6 12,9 13 7 22 12 SSE 0,0
24.06.2019 10:00:00 27,5 14,5 4 2 11 6 ESE 0,0
24.06.2019 09:00:00 24,6 15,8 4 2 8 4 ESE 0,0
24.06.2019 08:00:00 19,9 13,8 4 2 8 4 E -
24.06.2019 07:00:00 18,9 14,2 4 2 13 7 E 0,0
24.06.2019 06:00:00 17,2 13,5 2 1 8 4 S 0,0
24.06.2019 05:00:00 17,0 14,1 0 0 8 4 N 0,0
24.06.2019 04:00:00 17,0 14,5 2 1 4 2 SSE 0,0
24.06.2019 03:00:00 17,4 15,2 0 0 4 2 N 0,0
24.06.2019 02:00:00 18,1 15,5 0 0 4 2 N -
24.06.2019 01:00:00 18,8 15,8 0 0 4 2 N 0,0
24.06.2019 00:00:00 19,6 15,7 2 1 4 2 N 0,0
23.06.2019 23:00:00 21,1 16,7 0 0 9 5 N 0,0
23.06.2019 22:00:00 22,4 16,9 4 2 15 8 NW 0,0
23.06.2019 21:00:00 24,4 16,1 8 4 18 10 W 0,0
23.06.2019 20:00:00 25,5 14,6 8 4 22 12 SSW -
23.06.2019 19:00:00 28,6 12,5 11 6 26 14 SSW 0,0
23.06.2019 18:00:00 30,8 10,7 11 6 22 12 SW 0,0
23.06.2019 17:00:00 30,8 11,7 9 5 24 13 SW 0,0
23.06.2019 16:00:00 31,2 13,0 8 4 26 14 WSW 0,0
23.06.2019 15:00:00 29,9 14,4 11 6 28 15 SSW 0,0
23.06.2019 14:00:00 30,2 15,1 9 5 21 11 SW -
23.06.2019 13:00:00 29,9 12,3 4 2 21 11 W 0,0
23.06.2019 12:00:00 28,6 13,7 8 4 21 11 W 0,0
23.06.2019 11:00:00 27,4 15,1 9 5 21 11 SW 0,0
23.06.2019 10:00:00 26,7 14,8 4 2 13 7 SSE 0,0
23.06.2019 09:00:00 23,8 14,2 5 3 16 9 SE 0,0
23.06.2019 08:00:00 20,9 14,5 4 2 13 7 E -
23.06.2019 07:00:00 17,4 13,9 4 2 5 3 S 0,0
23.06.2019 06:00:00 15,6 14,0 0 0 4 2 N 0,0
23.06.2019 05:00:00 15,7 13,9 0 0 2 1 N 0,0
23.06.2019 04:00:00 16,2 13,9 0 0 2 1 N 0,0
23.06.2019 03:00:00 17,1 14,0 2 1 4 2 N 0,0
23.06.2019 02:00:00 17,9 14,2 2 1 4 2 N -
23.06.2019 01:00:00 18,7 14,4 2 1 4 2 N 0,0
23.06.2019 00:00:00 19,4 14,2 0 0 5 3 N 0,0
22.06.2019 23:00:00 20,6 13,8 0 0 4 2 N 0,0
22.06.2019 22:00:00 22,3 13,9 2 1 13 7 NW 0,0
22.06.2019 21:00:00 24,0 13,8 8 4 18 10 W 0,0
22.06.2019 20:00:00 25,1 13,0 8 4 22 12 SW -
22.06.2019 19:00:00 26,9 14,3 11 6 28 15 WSW 0,0
22.06.2019 18:00:00 27,7 14,7 15 8 31 17 SW 0,0
22.06.2019 17:00:00 28,1 14,3 18 10 34 18 SW 0,0
22.06.2019 16:00:00 28,9 14,7 16 9 34 18 WSW 0,0
22.06.2019 15:00:00 29,5 13,7 13 7 29 16 W 0,0
22.06.2019 14:00:00 28,0 14,6 9 5 31 17 W -
22.06.2019 13:00:00 27,7 15,0 11 6 24 13 W 0,0
22.06.2019 12:00:00 27,0 16,0 8 4 21 11 WNW 0,0
22.06.2019 11:00:00 25,8 16,6 5 3 15 8 WNW 0,0
22.06.2019 10:00:00 24,1 17,1 4 2 11 6 WSW 0,0
22.06.2019 09:00:00 22,3 16,8 2 1 9 5 SSE 0,0
22.06.2019 08:00:00 20,0 16,4 0 0 8 4 N -
22.06.2019 07:00:00 18,0 15,6 0 0 8 4 N 0,0
22.06.2019 06:00:00 17,7 15,5 0 0 5 3 N 0,0
22.06.2019 05:00:00 18,1 15,7 2 1 5 3 S 0,0
22.06.2019 04:00:00 18,0 15,6 0 0 5 3 N 0,0
22.06.2019 03:00:00 18,9 16,1 0 0 4 2 N 0,0
22.06.2019 02:00:00 19,3 16,0 0 0 5 3 N -
22.06.2019 01:00:00 20,5 16,5 2 1 4 2 NNE 0,0
22.06.2019 00:00:00 21,3 16,9 0 0 9 5 N 0,0
21.06.2019 23:00:00 21,5 16,2 4 2 15 8 WNW 0,0
21.06.2019 22:00:00 21,9 17,3 4 2 13 7 NW 0,0
21.06.2019 21:00:00 23,1 16,2 8 4 24 13 W 0,0
21.06.2019 20:00:00 25,2 16,3 11 6 24 13 WSW -
21.06.2019 19:00:00 27,3 16,3 9 5 18 10 WNW 0,0
21.06.2019 18:00:00 26,3 15,7 8 4 28 15 WSW 0,0
21.06.2019 17:00:00 26,0 15,4 11 6 29 16 WSW 0,0
21.06.2019 16:00:00 26,4 16,3 16 9 35 19 SW 0,0
21.06.2019 15:00:00 29,2 16,7 13 7 31 17 WSW 0,0
21.06.2019 14:00:00 29,5 16,0 13 7 28 15 SW -
21.06.2019 13:00:00 28,9 15,8 5 3 16 9 W 0,0
21.06.2019 12:00:00 27,7 15,0 4 2 15 8 NNW 0,0
21.06.2019 11:00:00 26,0 15,1 4 2 9 5 SSW 0,0
21.06.2019 10:00:00 23,8 15,0 5 3 13 7 SE 0,0
21.06.2019 09:00:00 21,9 15,5 2 1 13 7 NE 0,0
21.06.2019 08:00:00 21,6 15,0 4 2 11 6 E -
21.06.2019 07:00:00 19,8 15,4 0 0 9 5 N 0,0
21.06.2019 06:00:00 19,3 14,8 2 1 13 7 E 0,0
21.06.2019 05:00:00 18,2 14,9 2 1 5 3 E 0,0
21.06.2019 04:00:00 19,2 15,5 4 2 5 3 NNE 0,0
21.06.2019 03:00:00 20,2 16,4 2 1 8 4 E 0,0
21.06.2019 02:00:00 20,4 16,6 0 0 4 2 N -
21.06.2019 01:00:00 20,8 17,0 0 0 4 2 N 0,0
21.06.2019 00:00:00 21,0 17,0 2 1 8 4 NNE 0,0
20.06.2019 23:00:00 21,5 17,1 4 2 21 11 S 0,0
20.06.2019 22:00:00 22,5 17,0 4 2 15 8 SW 0,0
20.06.2019 21:00:00 23,1 17,1 8 4 21 11 SSW 0,0
20.06.2019 20:00:00 25,9 15,9 11 6 24 13 SSW -

tt = Température de l'air
td = dewpoint
ff = Vitesse du vent
fx = gusts
dd = Direction du vent
rr = Quantités de précipitations

stations d'obs. à proximité